sensor_id;sensor_type;location;lat;lon;timestamp;P1;durP1;ratioP1;P2;durP2;ratioP2
12177;SDS011;6152;48.728;9.256;2023-05-27T00:00:46;8.13;;;2.92;;
12177;SDS011;6152;48.728;9.256;2023-05-27T00:03:13;4.50;;;2.60;;
12177;SDS011;6152;48.728;9.256;2023-05-27T00:05:39;6.03;;;2.78;;
12177;SDS011;6152;48.728;9.256;2023-05-27T00:08:05;6.75;;;2.42;;
12177;SDS011;6152;48.728;9.256;2023-05-27T00:10:31;4.80;;;2.58;;
12177;SDS011;6152;48.728;9.256;2023-05-27T00:12:57;6.90;;;2.83;;
12177;SDS011;6152;48.728;9.256;2023-05-27T00:15:23;8.27;;;2.75;;
12177;SDS011;6152;48.728;9.256;2023-05-27T00:17:49;12.90;;;2.70;;
12177;SDS011;6152;48.728;9.256;2023-05-27T00:20:15;6.32;;;3.15;;
12177;SDS011;6152;48.728;9.256;2023-05-27T00:22:42;5.30;;;2.70;;
12177;SDS011;6152;48.728;9.256;2023-05-27T00:25:08;7.10;;;2.67;;
12177;SDS011;6152;48.728;9.256;2023-05-27T00:27:34;6.85;;;2.60;;
12177;SDS011;6152;48.728;9.256;2023-05-27T00:30:00;7.43;;;2.38;;
12177;SDS011;6152;48.728;9.256;2023-05-27T00:32:27;8.07;;;2.95;;
12177;SDS011;6152;48.728;9.256;2023-05-27T00:34:53;5.70;;;2.75;;
12177;SDS011;6152;48.728;9.256;2023-05-27T00:37:19;6.97;;;2.90;;
12177;SDS011;6152;48.728;9.256;2023-05-27T00:39:46;7.93;;;3.47;;
12177;SDS011;6152;48.728;9.256;2023-05-27T00:42:12;6.97;;;2.45;;
12177;SDS011;6152;48.728;9.256;2023-05-27T00:44:39;4.30;;;2.25;;
12177;SDS011;6152;48.728;9.256;2023-05-27T00:47:06;8.27;;;2.88;;
12177;SDS011;6152;48.728;9.256;2023-05-27T00:49:32;6.30;;;3.10;;
12177;SDS011;6152;48.728;9.256;2023-05-27T00:51:58;5.55;;;2.58;;
12177;SDS011;6152;48.728;9.256;2023-05-27T00:54:25;7.72;;;2.22;;
12177;SDS011;6152;48.728;9.256;2023-05-27T00:56:52;7.88;;;2.83;;
12177;SDS011;6152;48.728;9.256;2023-05-27T00:59:18;9.07;;;3.30;;
12177;SDS011;6152;48.728;9.256;2023-05-27T01:01:45;5.78;;;2.78;;
12177;SDS011;6152;48.728;9.256;2023-05-27T01:04:13;6.30;;;2.67;;
12177;SDS011;6152;48.728;9.256;2023-05-27T01:06:42;8.52;;;2.50;;
12177;SDS011;6152;48.728;9.256;2023-05-27T01:09:41;7.30;;;2.83;;
12177;SDS011;6152;48.728;9.256;2023-05-27T01:12:38;6.05;;;2.63;;
12177;SDS011;6152;48.728;9.256;2023-05-27T01:15:12;5.82;;;2.70;;
12177;SDS011;6152;48.728;9.256;2023-05-27T01:17:38;6.00;;;2.35;;
12177;SDS011;6152;48.728;9.256;2023-05-27T01:20:11;4.90;;;2.53;;
12177;SDS011;6152;48.728;9.256;2023-05-27T01:22:39;6.40;;;2.63;;
12177;SDS011;6152;48.728;9.256;2023-05-27T01:25:07;8.75;;;2.97;;
12177;SDS011;6152;48.728;9.256;2023-05-27T01:27:34;6.03;;;2.75;;
12177;SDS011;6152;48.728;9.256;2023-05-27T01:30:01;5.50;;;2.50;;
12177;SDS011;6152;48.728;9.256;2023-05-27T01:32:30;6.95;;;2.42;;
12177;SDS011;6152;48.728;9.256;2023-05-27T01:37:42;6.65;;;2.65;;
12177;SDS011;6152;48.728;9.256;2023-05-27T01:40:11;6.55;;;2.63;;
12177;SDS011;6152;48.728;9.256;2023-05-27T01:42:40;9.73;;;2.88;;
12177;SDS011;6152;48.728;9.256;2023-05-27T01:45:07;9.63;;;2.88;;
12177;SDS011;6152;48.728;9.256;2023-05-27T01:47:34;6.10;;;2.83;;
12177;SDS011;6152;48.728;9.256;2023-05-27T01:50:01;11.85;;;2.75;;
12177;SDS011;6152;48.728;9.256;2023-05-27T01:52:27;8.55;;;2.83;;
12177;SDS011;6152;48.728;9.256;2023-05-27T01:54:53;9.80;;;3.33;;
12177;SDS011;6152;48.728;9.256;2023-05-27T01:57:20;6.30;;;2.90;;
12177;SDS011;6152;48.728;9.256;2023-05-27T01:59:46;8.65;;;2.65;;
12177;SDS011;6152;48.728;9.256;2023-05-27T02:02:12;7.43;;;3.08;;
12177;SDS011;6152;48.728;9.256;2023-05-27T02:04:38;6.47;;;2.65;;
12177;SDS011;6152;48.728;9.256;2023-05-27T02:07:05;8.63;;;2.58;;
12177;SDS011;6152;48.728;9.256;2023-05-27T02:09:31;5.93;;;2.70;;
12177;SDS011;6152;48.728;9.256;2023-05-27T02:11:57;7.13;;;2.83;;
12177;SDS011;6152;48.728;9.256;2023-05-27T02:14:23;8.40;;;3.03;;
12177;SDS011;6152;48.728;9.256;2023-05-27T02:16:49;10.07;;;3.20;;
12177;SDS011;6152;48.728;9.256;2023-05-27T02:19:15;8.73;;;3.03;;
12177;SDS011;6152;48.728;9.256;2023-05-27T02:21:42;10.90;;;2.90;;
12177;SDS011;6152;48.728;9.256;2023-05-27T02:24:08;6.97;;;2.35;;
12177;SDS011;6152;48.728;9.256;2023-05-27T02:26:34;5.95;;;2.85;;
12177;SDS011;6152;48.728;9.256;2023-05-27T02:29:00;9.02;;;2.92;;
12177;SDS011;6152;48.728;9.256;2023-05-27T02:31:27;9.48;;;2.60;;
12177;SDS011;6152;48.728;9.256;2023-05-27T02:33:53;7.72;;;2.78;;
12177;SDS011;6152;48.728;9.256;2023-05-27T02:36:19;8.60;;;3.42;;
12177;SDS011;6152;48.728;9.256;2023-05-27T02:38:46;5.10;;;2.40;;
12177;SDS011;6152;48.728;9.256;2023-05-27T02:41:12;7.60;;;2.85;;
12177;SDS011;6152;48.728;9.256;2023-05-27T02:43:38;7.25;;;3.03;;
12177;SDS011;6152;48.728;9.256;2023-05-27T02:46:04;8.80;;;2.95;;
12177;SDS011;6152;48.728;9.256;2023-05-27T02:48:30;7.10;;;2.95;;
12177;SDS011;6152;48.728;9.256;2023-05-27T02:50:56;8.00;;;3.20;;
12177;SDS011;6152;48.728;9.256;2023-05-27T02:53:23;6.72;;;3.15;;
12177;SDS011;6152;48.728;9.256;2023-05-27T02:55:49;8.60;;;2.67;;
12177;SDS011;6152;48.728;9.256;2023-05-27T02:58:15;8.02;;;2.75;;
12177;SDS011;6152;48.728;9.256;2023-05-27T03:00:42;8.23;;;3.20;;
12177;SDS011;6152;48.728;9.256;2023-05-27T03:03:08;9.25;;;2.90;;
12177;SDS011;6152;48.728;9.256;2023-05-27T03:05:34;8.40;;;3.03;;
12177;SDS011;6152;48.728;9.256;2023-05-27T03:08:01;6.43;;;3.13;;
12177;SDS011;6152;48.728;9.256;2023-05-27T03:10:30;7.18;;;3.03;;
12177;SDS011;6152;48.728;9.256;2023-05-27T03:12:57;8.43;;;2.92;;
12177;SDS011;6152;48.728;9.256;2023-05-27T03:15:23;6.35;;;2.80;;
12177;SDS011;6152;48.728;9.256;2023-05-27T03:17:49;7.65;;;3.20;;
12177;SDS011;6152;48.728;9.256;2023-05-27T03:20:17;8.45;;;3.00;;
12177;SDS011;6152;48.728;9.256;2023-05-27T03:22:44;10.43;;;3.30;;
12177;SDS011;6152;48.728;9.256;2023-05-27T03:25:10;9.50;;;3.53;;
12177;SDS011;6152;48.728;9.256;2023-05-27T03:27:36;10.65;;;3.30;;
12177;SDS011;6152;48.728;9.256;2023-05-27T03:30:03;9.38;;;2.72;;
12177;SDS011;6152;48.728;9.256;2023-05-27T03:32:30;5.97;;;2.80;;
12177;SDS011;6152;48.728;9.256;2023-05-27T03:34:56;9.70;;;3.35;;
12177;SDS011;6152;48.728;9.256;2023-05-27T03:37:22;9.23;;;3.05;;
12177;SDS011;6152;48.728;9.256;2023-05-27T03:39:48;9.45;;;3.10;;
12177;SDS011;6152;48.728;9.256;2023-05-27T03:42:14;6.38;;;2.72;;
12177;SDS011;6152;48.728;9.256;2023-05-27T03:44:40;7.05;;;2.92;;
12177;SDS011;6152;48.728;9.256;2023-05-27T03:47:06;10.80;;;2.53;;
12177;SDS011;6152;48.728;9.256;2023-05-27T03:49:33;9.05;;;3.22;;
12177;SDS011;6152;48.728;9.256;2023-05-27T03:51:59;7.82;;;2.85;;
12177;SDS011;6152;48.728;9.256;2023-05-27T03:54:25;7.30;;;3.17;;
12177;SDS011;6152;48.728;9.256;2023-05-27T03:56:51;8.60;;;3.30;;
12177;SDS011;6152;48.728;9.256;2023-05-27T03:59:17;9.55;;;2.67;;
12177;SDS011;6152;48.728;9.256;2023-05-27T04:01:44;7.38;;;3.03;;
12177;SDS011;6152;48.728;9.256;2023-05-27T04:04:10;9.95;;;3.13;;
12177;SDS011;6152;48.728;9.256;2023-05-27T04:06:36;8.55;;;2.80;;
12177;SDS011;6152;48.728;9.256;2023-05-27T04:09:03;6.15;;;3.28;;
12177;SDS011;6152;48.728;9.256;2023-05-27T04:11:29;10.20;;;3.42;;
12177;SDS011;6152;48.728;9.256;2023-05-27T04:13:56;9.15;;;2.90;;
12177;SDS011;6152;48.728;9.256;2023-05-27T04:16:23;8.60;;;2.83;;
12177;SDS011;6152;48.728;9.256;2023-05-27T04:18:56;6.65;;;3.13;;
12177;SDS011;6152;48.728;9.256;2023-05-27T04:21:23;6.88;;;3.33;;
12177;SDS011;6152;48.728;9.256;2023-05-27T04:23:49;7.10;;;2.92;;
12177;SDS011;6152;48.728;9.256;2023-05-27T04:26:15;8.05;;;3.13;;
12177;SDS011;6152;48.728;9.256;2023-05-27T04:28:42;8.43;;;2.95;;
12177;SDS011;6152;48.728;9.256;2023-05-27T04:31:10;7.60;;;3.10;;
12177;SDS011;6152;48.728;9.256;2023-05-27T04:33:40;6.47;;;3.22;;
12177;SDS011;6152;48.728;9.256;2023-05-27T04:36:07;9.13;;;2.88;;
12177;SDS011;6152;48.728;9.256;2023-05-27T04:38:34;7.30;;;2.55;;
12177;SDS011;6152;48.728;9.256;2023-05-27T04:41:00;10.75;;;2.90;;
12177;SDS011;6152;48.728;9.256;2023-05-27T04:43:26;9.80;;;2.67;;
12177;SDS011;6152;48.728;9.256;2023-05-27T04:45:54;6.63;;;2.80;;
12177;SDS011;6152;48.728;9.256;2023-05-27T04:48:22;8.30;;;3.00;;
12177;SDS011;6152;48.728;9.256;2023-05-27T04:50:49;8.45;;;3.17;;
12177;SDS011;6152;48.728;9.256;2023-05-27T04:53:18;7.32;;;3.20;;
12177;SDS011;6152;48.728;9.256;2023-05-27T04:55:44;10.18;;;2.72;;
12177;SDS011;6152;48.728;9.256;2023-05-27T04:58:11;8.27;;;3.03;;
12177;SDS011;6152;48.728;9.256;2023-05-27T05:00:37;13.25;;;3.20;;
12177;SDS011;6152;48.728;9.256;2023-05-27T05:03:21;9.05;;;2.78;;
12177;SDS011;6152;48.728;9.256;2023-05-27T05:05:52;8.93;;;3.00;;
12177;SDS011;6152;48.728;9.256;2023-05-27T05:08:18;6.57;;;2.50;;
12177;SDS011;6152;48.728;9.256;2023-05-27T05:10:48;6.82;;;2.58;;
12177;SDS011;6152;48.728;9.256;2023-05-27T05:13:16;8.43;;;2.72;;
12177;SDS011;6152;48.728;9.256;2023-05-27T05:15:42;5.35;;;2.67;;
12177;SDS011;6152;48.728;9.256;2023-05-27T05:18:09;8.25;;;2.80;;
12177;SDS011;6152;48.728;9.256;2023-05-27T05:20:36;9.10;;;2.85;;
12177;SDS011;6152;48.728;9.256;2023-05-27T05:23:02;6.85;;;2.90;;
12177;SDS011;6152;48.728;9.256;2023-05-27T05:25:28;7.80;;;2.92;;
12177;SDS011;6152;48.728;9.256;2023-05-27T05:28:00;9.10;;;2.88;;
12177;SDS011;6152;48.728;9.256;2023-05-27T05:30:26;13.20;;;3.22;;
12177;SDS011;6152;48.728;9.256;2023-05-27T05:32:52;10.18;;;2.90;;
12177;SDS011;6152;48.728;9.256;2023-05-27T05:35:18;8.77;;;2.85;;
12177;SDS011;6152;48.728;9.256;2023-05-27T05:37:44;7.03;;;3.05;;
12177;SDS011;6152;48.728;9.256;2023-05-27T05:40:11;4.35;;;2.42;;
12177;SDS011;6152;48.728;9.256;2023-05-27T05:42:37;8.15;;;2.95;;
12177;SDS011;6152;48.728;9.256;2023-05-27T05:45:03;5.68;;;2.63;;
12177;SDS011;6152;48.728;9.256;2023-05-27T05:47:30;9.27;;;2.65;;
12177;SDS011;6152;48.728;9.256;2023-05-27T05:49:56;4.55;;;2.88;;
12177;SDS011;6152;48.728;9.256;2023-05-27T05:52:22;9.00;;;2.90;;
12177;SDS011;6152;48.728;9.256;2023-05-27T05:54:48;7.07;;;2.78;;
12177;SDS011;6152;48.728;9.256;2023-05-27T05:57:15;7.22;;;2.85;;
12177;SDS011;6152;48.728;9.256;2023-05-27T05:59:41;6.65;;;3.13;;
12177;SDS011;6152;48.728;9.256;2023-05-27T06:02:07;10.68;;;3.92;;
12177;SDS011;6152;48.728;9.256;2023-05-27T06:04:33;7.22;;;2.72;;
12177;SDS011;6152;48.728;9.256;2023-05-27T06:06:59;6.80;;;2.80;;
12177;SDS011;6152;48.728;9.256;2023-05-27T06:09:25;7.20;;;3.13;;
12177;SDS011;6152;48.728;9.256;2023-05-27T06:11:55;8.75;;;3.22;;
12177;SDS011;6152;48.728;9.256;2023-05-27T06:14:26;5.55;;;2.47;;
12177;SDS011;6152;48.728;9.256;2023-05-27T06:16:52;9.50;;;3.05;;
12177;SDS011;6152;48.728;9.256;2023-05-27T06:19:18;7.25;;;2.75;;
12177;SDS011;6152;48.728;9.256;2023-05-27T06:21:45;8.73;;;3.28;;
12177;SDS011;6152;48.728;9.256;2023-05-27T06:24:11;9.15;;;3.00;;
12177;SDS011;6152;48.728;9.256;2023-05-27T06:26:37;7.60;;;3.22;;
12177;SDS011;6152;48.728;9.256;2023-05-27T06:29:03;10.10;;;3.47;;
12177;SDS011;6152;48.728;9.256;2023-05-27T06:31:29;6.75;;;2.47;;
12177;SDS011;6152;48.728;9.256;2023-05-27T06:33:55;10.60;;;3.45;;
12177;SDS011;6152;48.728;9.256;2023-05-27T06:36:21;6.53;;;3.08;;
12177;SDS011;6152;48.728;9.256;2023-05-27T06:38:47;7.28;;;3.10;;
12177;SDS011;6152;48.728;9.256;2023-05-27T06:41:14;7.65;;;2.95;;
12177;SDS011;6152;48.728;9.256;2023-05-27T06:43:41;9.18;;;3.00;;
12177;SDS011;6152;48.728;9.256;2023-05-27T06:46:07;8.50;;;2.95;;
12177;SDS011;6152;48.728;9.256;2023-05-27T06:48:33;8.02;;;3.17;;
12177;SDS011;6152;48.728;9.256;2023-05-27T06:50:59;8.32;;;3.45;;
12177;SDS011;6152;48.728;9.256;2023-05-27T06:53:25;9.10;;;3.22;;
12177;SDS011;6152;48.728;9.256;2023-05-27T06:55:52;8.20;;;3.45;;
12177;SDS011;6152;48.728;9.256;2023-05-27T06:58:18;8.13;;;3.03;;
12177;SDS011;6152;48.728;9.256;2023-05-27T07:00:44;10.32;;;3.38;;
12177;SDS011;6152;48.728;9.256;2023-05-27T07:03:10;8.30;;;3.60;;
12177;SDS011;6152;48.728;9.256;2023-05-27T07:05:36;8.65;;;3.25;;
12177;SDS011;6152;48.728;9.256;2023-05-27T07:08:02;7.28;;;2.85;;
12177;SDS011;6152;48.728;9.256;2023-05-27T07:10:30;6.60;;;2.60;;
12177;SDS011;6152;48.728;9.256;2023-05-27T07:12:56;8.90;;;3.17;;
12177;SDS011;6152;48.728;9.256;2023-05-27T07:15:22;7.85;;;3.35;;
12177;SDS011;6152;48.728;9.256;2023-05-27T07:17:50;7.70;;;3.20;;
12177;SDS011;6152;48.728;9.256;2023-05-27T07:20:16;10.75;;;3.63;;
12177;SDS011;6152;48.728;9.256;2023-05-27T07:22:43;8.25;;;3.20;;
12177;SDS011;6152;48.728;9.256;2023-05-27T07:25:09;7.32;;;2.97;;
12177;SDS011;6152;48.728;9.256;2023-05-27T07:27:36;6.35;;;3.20;;
12177;SDS011;6152;48.728;9.256;2023-05-27T07:30:02;6.95;;;3.40;;
12177;SDS011;6152;48.728;9.256;2023-05-27T07:32:28;7.25;;;3.17;;
12177;SDS011;6152;48.728;9.256;2023-05-27T07:34:54;7.25;;;2.72;;
12177;SDS011;6152;48.728;9.256;2023-05-27T07:37:21;9.57;;;3.42;;
12177;SDS011;6152;48.728;9.256;2023-05-27T07:39:48;6.78;;;2.90;;
12177;SDS011;6152;48.728;9.256;2023-05-27T07:42:16;9.70;;;3.72;;
12177;SDS011;6152;48.728;9.256;2023-05-27T07:44:42;9.00;;;3.70;;
12177;SDS011;6152;48.728;9.256;2023-05-27T07:47:08;5.00;;;3.45;;
12177;SDS011;6152;48.728;9.256;2023-05-27T07:49:35;6.32;;;3.58;;
12177;SDS011;6152;48.728;9.256;2023-05-27T07:52:01;6.50;;;3.50;;
12177;SDS011;6152;48.728;9.256;2023-05-27T07:54:27;7.70;;;3.45;;
12177;SDS011;6152;48.728;9.256;2023-05-27T07:56:53;7.68;;;3.65;;
12177;SDS011;6152;48.728;9.256;2023-05-27T07:59:22;6.38;;;3.08;;
12177;SDS011;6152;48.728;9.256;2023-05-27T08:01:49;6.68;;;3.72;;
12177;SDS011;6152;48.728;9.256;2023-05-27T08:04:15;8.75;;;3.40;;
12177;SDS011;6152;48.728;9.256;2023-05-27T08:06:41;8.02;;;3.15;;
12177;SDS011;6152;48.728;9.256;2023-05-27T08:09:08;8.52;;;3.75;;
12177;SDS011;6152;48.728;9.256;2023-05-27T08:11:40;6.10;;;3.15;;
12177;SDS011;6152;48.728;9.256;2023-05-27T08:14:06;5.45;;;3.22;;
12177;SDS011;6152;48.728;9.256;2023-05-27T08:16:32;6.32;;;2.72;;
12177;SDS011;6152;48.728;9.256;2023-05-27T08:18:59;5.95;;;3.55;;
12177;SDS011;6152;48.728;9.256;2023-05-27T08:21:25;7.93;;;3.35;;
12177;SDS011;6152;48.728;9.256;2023-05-27T08:23:51;7.95;;;3.25;;
12177;SDS011;6152;48.728;9.256;2023-05-27T08:26:17;6.07;;;3.45;;
12177;SDS011;6152;48.728;9.256;2023-05-27T08:28:43;6.47;;;3.25;;
12177;SDS011;6152;48.728;9.256;2023-05-27T08:31:11;6.30;;;3.35;;
12177;SDS011;6152;48.728;9.256;2023-05-27T08:33:37;6.63;;;3.08;;
12177;SDS011;6152;48.728;9.256;2023-05-27T08:36:03;5.32;;;3.58;;
12177;SDS011;6152;48.728;9.256;2023-05-27T08:38:30;8.73;;;3.35;;
12177;SDS011;6152;48.728;9.256;2023-05-27T08:40:56;7.28;;;3.30;;
12177;SDS011;6152;48.728;9.256;2023-05-27T08:43:24;5.97;;;3.28;;
12177;SDS011;6152;48.728;9.256;2023-05-27T08:45:50;4.53;;;2.90;;
12177;SDS011;6152;48.728;9.256;2023-05-27T08:48:16;6.72;;;3.22;;
12177;SDS011;6152;48.728;9.256;2023-05-27T08:50:43;6.65;;;3.78;;
12177;SDS011;6152;48.728;9.256;2023-05-27T08:53:10;5.43;;;3.25;;
12177;SDS011;6152;48.728;9.256;2023-05-27T08:55:37;5.25;;;3.22;;
12177;SDS011;6152;48.728;9.256;2023-05-27T08:58:06;5.63;;;3.42;;
12177;SDS011;6152;48.728;9.256;2023-05-27T09:00:34;5.88;;;3.42;;
12177;SDS011;6152;48.728;9.256;2023-05-27T09:03:00;6.97;;;3.60;;
12177;SDS011;6152;48.728;9.256;2023-05-27T09:05:28;5.45;;;3.28;;
12177;SDS011;6152;48.728;9.256;2023-05-27T09:07:54;6.60;;;3.42;;
12177;SDS011;6152;48.728;9.256;2023-05-27T09:10:20;7.10;;;3.55;;
12177;SDS011;6152;48.728;9.256;2023-05-27T09:12:47;5.90;;;3.80;;
12177;SDS011;6152;48.728;9.256;2023-05-27T09:15:15;7.32;;;3.83;;
12177;SDS011;6152;48.728;9.256;2023-05-27T09:17:41;5.88;;;3.75;;
12177;SDS011;6152;48.728;9.256;2023-05-27T09:20:08;6.70;;;3.60;;
12177;SDS011;6152;48.728;9.256;2023-05-27T09:22:36;7.93;;;3.50;;
12177;SDS011;6152;48.728;9.256;2023-05-27T09:25:03;7.78;;;3.63;;
12177;SDS011;6152;48.728;9.256;2023-05-27T09:27:30;8.52;;;3.33;;
12177;SDS011;6152;48.728;9.256;2023-05-27T09:29:57;6.03;;;3.50;;
12177;SDS011;6152;48.728;9.256;2023-05-27T09:32:32;5.25;;;3.20;;
12177;SDS011;6152;48.728;9.256;2023-05-27T09:34:58;4.03;;;3.20;;
12177;SDS011;6152;48.728;9.256;2023-05-27T09:37:26;4.65;;;3.20;;
12177;SDS011;6152;48.728;9.256;2023-05-27T09:39:57;7.68;;;3.78;;
12177;SDS011;6152;48.728;9.256;2023-05-27T09:42:24;6.63;;;3.58;;
12177;SDS011;6152;48.728;9.256;2023-05-27T09:44:50;9.52;;;3.90;;
12177;SDS011;6152;48.728;9.256;2023-05-27T09:47:20;4.25;;;3.30;;
12177;SDS011;6152;48.728;9.256;2023-05-27T09:49:48;5.18;;;3.65;;
12177;SDS011;6152;48.728;9.256;2023-05-27T09:52:17;6.78;;;3.38;;
12177;SDS011;6152;48.728;9.256;2023-05-27T09:54:46;4.38;;;3.30;;
12177;SDS011;6152;48.728;9.256;2023-05-27T09:57:14;5.45;;;4.15;;
12177;SDS011;6152;48.728;9.256;2023-05-27T09:59:41;4.68;;;3.78;;
12177;SDS011;6152;48.728;9.256;2023-05-27T10:02:08;5.95;;;3.85;;
12177;SDS011;6152;48.728;9.256;2023-05-27T10:04:38;7.72;;;3.90;;
12177;SDS011;6152;48.728;9.256;2023-05-27T10:07:05;6.05;;;3.63;;
12177;SDS011;6152;48.728;9.256;2023-05-27T10:09:31;5.25;;;3.33;;
12177;SDS011;6152;48.728;9.256;2023-05-27T10:11:57;5.57;;;3.53;;
12177;SDS011;6152;48.728;9.256;2023-05-27T10:14:24;5.82;;;3.55;;
12177;SDS011;6152;48.728;9.256;2023-05-27T10:16:51;5.57;;;3.60;;
12177;SDS011;6152;48.728;9.256;2023-05-27T10:19:20;3.85;;;3.35;;
12177;SDS011;6152;48.728;9.256;2023-05-27T10:21:47;5.15;;;3.30;;
12177;SDS011;6152;48.728;9.256;2023-05-27T10:24:13;6.13;;;3.42;;
12177;SDS011;6152;48.728;9.256;2023-05-27T10:26:40;4.45;;;3.53;;
12177;SDS011;6152;48.728;9.256;2023-05-27T10:29:11;5.28;;;3.60;;
12177;SDS011;6152;48.728;9.256;2023-05-27T10:31:49;4.82;;;3.78;;
12177;SDS011;6152;48.728;9.256;2023-05-27T10:34:16;4.57;;;3.40;;
12177;SDS011;6152;48.728;9.256;2023-05-27T10:36:43;7.25;;;3.92;;
12177;SDS011;6152;48.728;9.256;2023-05-27T10:39:14;5.53;;;3.72;;
12177;SDS011;6152;48.728;9.256;2023-05-27T10:41:42;4.22;;;3.55;;
12177;SDS011;6152;48.728;9.256;2023-05-27T10:44:28;5.63;;;3.47;;
12177;SDS011;6152;48.728;9.256;2023-05-27T10:47:00;6.05;;;3.33;;
12177;SDS011;6152;48.728;9.256;2023-05-27T10:49:28;5.85;;;3.78;;
12177;SDS011;6152;48.728;9.256;2023-05-27T10:52:11;6.25;;;3.90;;
12177;SDS011;6152;48.728;9.256;2023-05-27T10:54:45;8.48;;;4.00;;
12177;SDS011;6152;48.728;9.256;2023-05-27T10:57:12;5.40;;;3.88;;
12177;SDS011;6152;48.728;9.256;2023-05-27T10:59:43;5.00;;;3.70;;
12177;SDS011;6152;48.728;9.256;2023-05-27T11:02:18;5.05;;;3.88;;
12177;SDS011;6152;48.728;9.256;2023-05-27T11:04:45;8.57;;;3.80;;
12177;SDS011;6152;48.728;9.256;2023-05-27T11:07:20;4.45;;;3.80;;
12177;SDS011;6152;48.728;9.256;2023-05-27T11:09:54;5.10;;;3.50;;
12177;SDS011;6152;48.728;9.256;2023-05-27T11:12:21;4.97;;;4.00;;
12177;SDS011;6152;48.728;9.256;2023-05-27T11:14:54;5.70;;;3.90;;
12177;SDS011;6152;48.728;9.256;2023-05-27T11:17:24;5.50;;;3.75;;
12177;SDS011;6152;48.728;9.256;2023-05-27T11:19:54;6.35;;;4.03;;
12177;SDS011;6152;48.728;9.256;2023-05-27T11:22:20;5.50;;;3.70;;
12177;SDS011;6152;48.728;9.256;2023-05-27T11:24:59;5.28;;;3.58;;
12177;SDS011;6152;48.728;9.256;2023-05-27T11:27:36;4.53;;;3.80;;
12177;SDS011;6152;48.728;9.256;2023-05-27T11:30:07;4.15;;;3.50;;
12177;SDS011;6152;48.728;9.256;2023-05-27T11:32:34;4.63;;;3.63;;
12177;SDS011;6152;48.728;9.256;2023-05-27T11:35:01;8.55;;;3.65;;
12177;SDS011;6152;48.728;9.256;2023-05-27T11:37:34;6.28;;;3.75;;
12177;SDS011;6152;48.728;9.256;2023-05-27T11:40:00;7.15;;;3.38;;
12177;SDS011;6152;48.728;9.256;2023-05-27T11:42:27;4.43;;;3.88;;
12177;SDS011;6152;48.728;9.256;2023-05-27T11:44:55;4.93;;;3.83;;
12177;SDS011;6152;48.728;9.256;2023-05-27T11:47:22;4.55;;;3.17;;
12177;SDS011;6152;48.728;9.256;2023-05-27T11:49:49;4.38;;;3.63;;
12177;SDS011;6152;48.728;9.256;2023-05-27T11:52:15;5.70;;;3.47;;
12177;SDS011;6152;48.728;9.256;2023-05-27T11:54:42;5.88;;;3.95;;
12177;SDS011;6152;48.728;9.256;2023-05-27T11:57:08;6.55;;;3.65;;
12177;SDS011;6152;48.728;9.256;2023-05-27T11:59:36;5.93;;;4.07;;
12177;SDS011;6152;48.728;9.256;2023-05-27T12:02:05;4.47;;;3.42;;
12177;SDS011;6152;48.728;9.256;2023-05-27T12:04:31;6.32;;;3.60;;
12177;SDS011;6152;48.728;9.256;2023-05-27T12:06:58;4.25;;;3.53;;
12177;SDS011;6152;48.728;9.256;2023-05-27T12:09:25;6.82;;;3.92;;
12177;SDS011;6152;48.728;9.256;2023-05-27T12:11:52;7.68;;;3.97;;
12177;SDS011;6152;48.728;9.256;2023-05-27T12:14:18;7.18;;;4.18;;
12177;SDS011;6152;48.728;9.256;2023-05-27T12:16:45;6.72;;;3.90;;
12177;SDS011;6152;48.728;9.256;2023-05-27T12:19:11;8.27;;;4.28;;
12177;SDS011;6152;48.728;9.256;2023-05-27T12:21:38;5.93;;;3.92;;
12177;SDS011;6152;48.728;9.256;2023-05-27T12:24:04;5.47;;;4.00;;
12177;SDS011;6152;48.728;9.256;2023-05-27T12:26:31;6.47;;;3.90;;
12177;SDS011;6152;48.728;9.256;2023-05-27T12:28:57;8.27;;;3.97;;
12177;SDS011;6152;48.728;9.256;2023-05-27T12:31:23;5.72;;;4.10;;
12177;SDS011;6152;48.728;9.256;2023-05-27T12:33:50;6.18;;;4.57;;
12177;SDS011;6152;48.728;9.256;2023-05-27T12:36:16;7.10;;;4.45;;
12177;SDS011;6152;48.728;9.256;2023-05-27T12:38:44;7.45;;;4.13;;
12177;SDS011;6152;48.728;9.256;2023-05-27T12:41:10;7.10;;;4.90;;
12177;SDS011;6152;48.728;9.256;2023-05-27T12:43:36;6.97;;;4.45;;
12177;SDS011;6152;48.728;9.256;2023-05-27T12:46:02;7.05;;;4.10;;
12177;SDS011;6152;48.728;9.256;2023-05-27T12:48:29;8.18;;;4.55;;
12177;SDS011;6152;48.728;9.256;2023-05-27T12:50:55;7.80;;;4.07;;
12177;SDS011;6152;48.728;9.256;2023-05-27T12:53:22;5.28;;;4.10;;
12177;SDS011;6152;48.728;9.256;2023-05-27T12:55:48;7.35;;;4.47;;
12177;SDS011;6152;48.728;9.256;2023-05-27T12:58:14;5.70;;;4.22;;
12177;SDS011;6152;48.728;9.256;2023-05-27T13:00:41;6.50;;;4.70;;
12177;SDS011;6152;48.728;9.256;2023-05-27T13:03:08;8.48;;;4.63;;
12177;SDS011;6152;48.728;9.256;2023-05-27T13:05:35;6.20;;;4.60;;
12177;SDS011;6152;48.728;9.256;2023-05-27T13:08:01;6.68;;;4.63;;
12177;SDS011;6152;48.728;9.256;2023-05-27T13:10:29;8.45;;;5.22;;
12177;SDS011;6152;48.728;9.256;2023-05-27T13:12:57;7.13;;;4.78;;
12177;SDS011;6152;48.728;9.256;2023-05-27T13:15:24;5.72;;;4.03;;
12177;SDS011;6152;48.728;9.256;2023-05-27T13:17:51;5.05;;;4.22;;
12177;SDS011;6152;48.728;9.256;2023-05-27T13:20:18;7.43;;;4.60;;
12177;SDS011;6152;48.728;9.256;2023-05-27T13:22:46;6.80;;;4.47;;
12177;SDS011;6152;48.728;9.256;2023-05-27T13:25:13;7.88;;;4.00;;
12177;SDS011;6152;48.728;9.256;2023-05-27T13:27:40;8.38;;;4.30;;
12177;SDS011;6152;48.728;9.256;2023-05-27T13:30:07;8.55;;;3.78;;
12177;SDS011;6152;48.728;9.256;2023-05-27T13:32:34;8.00;;;4.43;;
12177;SDS011;6152;48.728;9.256;2023-05-27T13:35:01;5.18;;;4.15;;
12177;SDS011;6152;48.728;9.256;2023-05-27T13:37:28;5.88;;;4.30;;
12177;SDS011;6152;48.728;9.256;2023-05-27T13:39:54;7.95;;;4.10;;
12177;SDS011;6152;48.728;9.256;2023-05-27T13:42:22;6.32;;;4.45;;
12177;SDS011;6152;48.728;9.256;2023-05-27T13:44:48;6.43;;;4.10;;
12177;SDS011;6152;48.728;9.256;2023-05-27T13:47:14;5.88;;;4.50;;
12177;SDS011;6152;48.728;9.256;2023-05-27T13:49:40;6.38;;;3.80;;
12177;SDS011;6152;48.728;9.256;2023-05-27T13:52:06;6.78;;;3.88;;
12177;SDS011;6152;48.728;9.256;2023-05-27T13:54:32;7.90;;;3.45;;
12177;SDS011;6152;48.728;9.256;2023-05-27T13:56:58;8.02;;;3.70;;
12177;SDS011;6152;48.728;9.256;2023-05-27T13:59:25;7.28;;;3.80;;
12177;SDS011;6152;48.728;9.256;2023-05-27T14:01:51;6.97;;;4.10;;
12177;SDS011;6152;48.728;9.256;2023-05-27T14:04:17;6.45;;;3.95;;
12177;SDS011;6152;48.728;9.256;2023-05-27T14:06:43;8.60;;;3.60;;
12177;SDS011;6152;48.728;9.256;2023-05-27T14:09:09;6.15;;;3.45;;
12177;SDS011;6152;48.728;9.256;2023-05-27T14:11:35;6.18;;;3.50;;
12177;SDS011;6152;48.728;9.256;2023-05-27T14:14:01;6.38;;;3.60;;
12177;SDS011;6152;48.728;9.256;2023-05-27T14:16:28;12.23;;;3.50;;
12177;SDS011;6152;48.728;9.256;2023-05-27T14:18:54;5.43;;;3.08;;
12177;SDS011;6152;48.728;9.256;2023-05-27T14:21:20;4.00;;;2.95;;
12177;SDS011;6152;48.728;9.256;2023-05-27T14:23:47;6.18;;;3.40;;
12177;SDS011;6152;48.728;9.256;2023-05-27T14:26:13;3.80;;;3.33;;
12177;SDS011;6152;48.728;9.256;2023-05-27T14:28:40;4.88;;;3.30;;
12177;SDS011;6152;48.728;9.256;2023-05-27T14:31:06;5.20;;;3.20;;
12177;SDS011;6152;48.728;9.256;2023-05-27T14:33:32;5.95;;;3.30;;
12177;SDS011;6152;48.728;9.256;2023-05-27T14:35:59;5.28;;;3.33;;
12177;SDS011;6152;48.728;9.256;2023-05-27T14:38:25;3.83;;;3.47;;
12177;SDS011;6152;48.728;9.256;2023-05-27T14:40:51;3.20;;;2.92;;
12177;SDS011;6152;48.728;9.256;2023-05-27T14:43:17;4.88;;;2.88;;
12177;SDS011;6152;48.728;9.256;2023-05-27T14:45:44;6.65;;;2.80;;
12177;SDS011;6152;48.728;9.256;2023-05-27T14:48:10;4.15;;;2.72;;
12177;SDS011;6152;48.728;9.256;2023-05-27T14:50:36;5.93;;;2.92;;
12177;SDS011;6152;48.728;9.256;2023-05-27T14:53:02;4.97;;;2.65;;
12177;SDS011;6152;48.728;9.256;2023-05-27T14:55:28;5.07;;;2.90;;
12177;SDS011;6152;48.728;9.256;2023-05-27T14:57:55;4.95;;;2.75;;
12177;SDS011;6152;48.728;9.256;2023-05-27T15:00:21;5.68;;;2.90;;
12177;SDS011;6152;48.728;9.256;2023-05-27T15:02:47;4.30;;;2.88;;